High wind

Not for real navigation. The accuracy of this data is not assured See disclaimer for more information



ICAO NAME COUNTRY WIND Kt GUST Kt VIS m TEMP/DEW C BARO METAR
ENRS Rost Flyplass Norway 306 56 800 0/-2 29.44 ENRS 191020Z 280306G56KT 0800 -SHSNGS FEW011 SCT020CB BKN053 M00/M02 Q0997
ENHE Heidrun Norway 46 0 9999 2/-7 29.85 ENHE 191020Z 31046KT 9999 BKN041 02/M07 Q1011 W///S7
ENDR Draugen Norway 45 0 9999 5/-4 29.94 ENDR 191020Z AUTO 29045KT 05/M04 Q1014
ENNE 42 53 9999 2/-8 29.83 ENNE 191020Z 31042G53KT 9999 VCSH FEW010CB BKN020 02/M08 Q1010 W///S7
KGDP GUADALUPE PASS TX United States 41 54 9999 4/1 29.84 KGDP 190951Z AUTO 24041G54KT 10SM CAVOK 04/01 A2984 RMK AO2 PK WND 25054/0943 SLP078 T00390011

Show more